Flight Track Log - Related Links

Times and Time Zones

All times are in EDT time to prevent confusion due to time zone crossing. See the N53NW flight status page for this flight to view local times or setup timezone preferences in your user account.

Time Position Orientation Groundspeed Altitude Reporting Facility
EDT Latitude Longitude Course Direction KTS MPH feet Rate Location/Type
Mon 09:36:04 AM 33.2294 -87.5975 352° North 172 198 1,300  Level Atlanta Center
Mon 09:36:28 AM 33.2425 -87.5781 51° Northeast 182 209 2,500 2,734 Climbing Atlanta Center
Mon 09:37:23 AM 33.2900 -87.5975 341° North 218 251 4,900 1,304 Climbing Atlanta Center
Mon 09:38:23 AM 33.3294 -87.6711 303° West 279 321 5,000 1,041 Climbing Atlanta Center
Mon 09:39:24 AM 33.3711 -87.7425 305° West 274 315 7,000 2,190 Climbing Atlanta Center
Mon 09:40:29 AM 33.4178 -87.8200 306° West 276 318 9,600 2,411 Climbing Memphis Center
Mon 09:41:00 AM 33.8103 -87.7086 352° North  Level Estimated
Mon 09:41:16 AM 33.4558 -87.8853 305° West 289 333 11,500  Level Memphis Center
Mon 09:41:31 AM 33.4633 -87.9008 300° West 283 326 12,100 2,656 Climbing Memphis Center
Mon 09:42:17 AM 33.5042 -87.9722 304° West 293 337 14,200 2,419 Climbing Memphis Center
Mon 09:42:33 AM 33.5086 -87.9806 303° West 287 330 14,600 2,455 Climbing Memphis Center
Mon 09:43:23 AM 33.5378 -88.0617 293° West 285 328 16,900 2,419 Climbing Memphis Center
Mon 09:43:35 AM 33.5394 -88.0681 287° West 296 341 17,100 2,459 Climbing Memphis Center
Mon 09:44:24 AM 33.5275 -88.1539 261° West 276 318 19,400 2,710 Climbing Memphis Center
Mon 09:44:37 AM 33.5250 -88.1772 263° West 282 325 19,900 2,320 Climbing Memphis Center
Mon 09:45:39 AM 33.5150 -88.2672 262° West 271 312 22,300 1,839 Climbing Memphis Center
Mon 09:46:41 AM 33.5444 -88.3392 296° West 304 350 23,700 1,355 Climbing Memphis Center
Mon 09:47:43 AM 33.6292 -88.3467 356° North 306 352 25,100 1,355 Climbing Memphis Center
Mon 09:48:45 AM 33.7169 -88.3483 359° North 308 354 26,500 1,355 Climbing Memphis Center
Mon 09:49:47 AM 33.8092 -88.3514 358° North 320 368 27,900 1,500 Climbing Memphis Center
Mon 09:50:49 AM 33.9214 -88.3536 359° North 331 381 29,600 1,500 Climbing Memphis Center
Mon 09:51:51 AM 34.0164 -88.3567 358° North 336 387 31,000 1,344 Climbing Memphis Center
Mon 09:52:54 AM 34.1128 -88.3581 359° North 343 395 32,400 1,344 Climbing Memphis Center
Mon 09:53:56 AM 34.2106 -88.3611 359° North 343 395 33,800 1,403 Climbing Memphis Center
Mon 09:54:58 AM 34.3083 -88.3639 359° North 347 399 35,300 1,355 Climbing Memphis Center
Mon 09:56:00 AM 34.4061 -88.3667 359° North 347 399 36,600 1,161 Climbing Memphis Center
Mon 09:57:02 AM 34.5053 -88.3678 359° North 348 400 37,700 1,113 Climbing Memphis Center
Mon 09:58:04 AM 34.6253 -88.3719 358° North 352 405 38,900 968 Climbing Memphis Center
Mon 09:59:06 AM 34.7256 -88.3728 360° North 356 410 39,700 774 Climbing Memphis Center
Mon 10:00:08 AM 34.8278 -88.3756 359° North 360 414 40,500 677 Climbing Memphis Center
Mon 10:01:10 AM 34.9297 -88.3781 359° North 361 415 41,100 581 Climbing Memphis Center
Mon 10:02:12 AM 35.0339 -88.3806 359° North 368 423 41,700 581 Climbing Memphis Center
Mon 10:03:14 AM 35.1383 -88.3833 359° North 370 426 42,300 629 Climbing Memphis Center
Mon 10:04:16 AM 35.2622 -88.3864 359° North 370 426 43,000 339 Climbing Memphis Center
Mon 10:05:18 AM 35.3650 -88.3881 359° North 370 426 43,000  Level Memphis Center
Mon 10:06:20 AM 35.4714 -88.3908 359° North 370 426 43,000  Level Memphis Center
Mon 10:07:22 AM 35.5725 -88.3933 359° North 369 425 43,000  Level Memphis Center
Mon 10:08:24 AM 35.6731 -88.3958 359° North 366 421 43,000  Level Memphis Center
Mon 10:09:26 AM 35.7728 -88.4000 358° North 362 417 43,000  Level Memphis Center
Mon 10:10:28 AM 35.8753 -88.4017 359° North 363 418 43,000  Level Memphis Center
Mon 10:11:30 AM 35.9961 -88.4053 359° North 363 418 43,000  Level Memphis Center
Mon 10:12:33 AM 36.0964 -88.4072 359° North 363 418 43,000  Level Memphis Center
Mon 10:13:35 AM 36.1969 -88.4111 358° North 363 418 43,000  Level Memphis Center
Mon 10:14:37 AM 36.2969 -88.4125 359° North 363 418 43,000  Level Memphis Center
Mon 10:15:39 AM 36.3969 -88.4150 359° North 362 417 43,000  Level Memphis Center
Mon 10:16:41 AM 36.5197 -88.4186 359° North 363 418 43,000  Level Memphis Center
Mon 10:17:43 AM 36.6217 -88.4206 359° North 364 419 43,000  Level Memphis Center
Mon 10:18:45 AM 36.7242 -88.4239 359° North 365 420 43,000  Level Memphis Center
Mon 10:19:47 AM 36.8275 -88.4267 359° North 367 422 43,000  Level Memphis Center
Mon 10:20:49 AM 36.9311 -88.4297 359° North 369 425 43,000  Level Memphis Center
Mon 10:21:51 AM 37.0353 -88.4322 359° North 370 426 43,000  Level Memphis Center
Mon 10:22:53 AM 37.1597 -88.4364 358° North 371 427 43,000  Level Memphis Center
Mon 10:23:55 AM 37.2644 -88.4392 359° North 372 428 43,000 -532 Level Memphis Center
Mon 10:24:57 AM 37.3692 -88.4406 359° North 373 429 41,900 -1,258 Descending Memphis Center
Mon 10:25:59 AM 37.4711 -88.4439 359° North 373 429 40,400 -1,403 Descending Memphis Center
Mon 10:27:01 AM 37.5708 -88.4461 359° North 363 418 39,000 -1,355 Descending Memphis Center
Mon 10:28:03 AM 37.6647 -88.4481 359° North 344 396 37,600 -1,452 Descending Memphis Center
Mon 10:29:05 AM 37.7739 -88.4519 358° North 331 381 36,000 -1,435 Descending Memphis Center
Mon 10:29:35 AM 37.8122 -88.4542 357° North 330 380 35,400 -674 Descending Kansas City Center
Mon 10:30:34 AM 37.9014 -88.4556 359° North 323 372 35,000 -341 Descending Kansas City Center
Mon 10:31:38 AM 37.9886 -88.4578 359° North 316 364 34,700 -709 Descending Kansas City Center
Mon 10:32:41 AM 38.0806 -88.4614 358° North 320 368 33,500 -1,694 Descending Kansas City Center
Mon 10:33:42 AM 38.1789 -88.4622 360° North 332 382 31,200 -1,869 Descending Kansas City Center
Mon 10:34:43 AM 38.2847 -88.4653 359° North 349 402 29,700 -1,536 Descending Kansas City Center
Mon 10:35:47 AM 38.4167 -88.4686 359° North 374 430 28,000 -1,524 Descending Kansas City Center
Mon 10:36:49 AM 38.5239 -88.4703 359° North 380 437 26,500 -1,415 Descending Kansas City Center
Mon 10:37:50 AM 38.6272 -88.4733 359° North 378 435 25,100 -1,377 Descending Kansas City Center
Mon 10:38:51 AM 38.7272 -88.4753 359° North 367 422 23,700 -1,355 Descending Kansas City Center
Mon 10:39:54 AM 38.8219 -88.4778 359° North 350 403 22,300 -1,333 Descending Kansas City Center
Mon 10:40:57 AM 38.9167 -88.4825 358° North 342 394 20,900 -1,355 Descending Kansas City Center
Mon 10:41:58 AM 39.0097 -88.5056 349° North 342 394 19,500 -1,296 Descending Kansas City Center
Mon 10:43:02 AM 39.0986 -88.5303 348° North 332 382 18,200 -1,210 Descending Kansas City Center
Mon 10:44:02 AM 39.2092 -88.5589 349° North 332 382 17,000 -1,230 Descending Kansas City Center
Mon 10:45:04 AM 39.2994 -88.5839 348° North 332 382 15,700 -1,143 Descending Kansas City Center
Mon 10:46:08 AM 39.3767 -88.6044 348° North 326 375 14,600 -1,161 Descending Kansas City Center
Mon 10:47:08 AM 39.4711 -88.6314 348° North 318 366 13,300 -1,230 Descending Kansas City Center
Mon 10:48:10 AM 39.5558 -88.6550 348° North 314 361 12,100 -1,143 Descending Kansas City Center
Mon 10:49:14 AM 39.6381 -88.6772 348° North 308 354 10,900 -992 Descending Kansas City Center
Mon 10:50:17 AM 39.7367 -88.7056 348° North 306 352 10,000 -435 Descending Kansas City Center
Mon 10:51:18 AM 39.8128 -88.7264 348° North 288 331 10,000  Level Kansas City Center
Mon 10:52:19 AM 39.8847 -88.7469 348° North 274 315 10,000  Level Kansas City Center
Mon 10:53:23 AM 39.9569 -88.7675 348° North 268 308 10,000 -96 Level Kansas City Center
Mon 10:54:24 AM 40.0278 -88.7875 348° North 266 306 9,800 -836 Descending Kansas City Center
Mon 10:55:25 AM 40.1011 -88.8078 348° North 266 306 8,300 -1,556 Descending Kansas City Center
Mon 10:56:39 AM 40.2022 -88.8367 348° North 265 305 6,300 -1,664 Descending Chicago Center
Mon 10:57:42 AM 40.2728 -88.8567 348° North 265 305 4,500 -1,104 Descending Chicago Center
Mon 10:58:44 AM 40.3381 -88.8592 358° North 246 283 4,000 -581 Descending Chicago Center
Mon 10:59:46 AM 40.4017 -88.8597 360° North 230 265 3,300 -677 Descending Chicago Center
Mon 11:00:48 AM 40.4542 -88.8606 359° North 203 234 2,600 -581 Descending Chicago Center
Mon 11:01:50 AM 40.5072 -88.8328 22° Northeast 176 203 2,100 -387 Descending Chicago Center
Mon 11:02:52 AM 40.5242 -88.8767 297° West 154 177 1,800 -387 Descending Chicago Center
Mon 11:03:54 AM 40.4917 -88.9017 210° Southwest 138 159 1,300 -484 Descending Chicago Center
Mon 11:05:00 AM 40.4667 -88.9000 242° Southwest  Level FlightAware Approximate

Login

Don't have an account? Register now (free) for customized features, flight alerts, and more!